Time;durP1;ratioP1;P1;durP2;ratioP2;P2;SDS_P1;SDS_P2;PMS_P1;PMS_P2;Temp;Humidity;BMP_temperature;BMP_pressure;BME280_temperature;BME280_humidity;BME280_pressure;Samples;Min_cycle;Max_cycle;Signal;HPM_P1;HPM_P2
2022/05/13 00:00:28;;;;;;;6.60;2.20;;;;;;;;;;5075608;28;20073;-78
2022/05/13 00:02:54;;;;;;;6.72;2.25;;;;;;;;;;5093976;28;20035;-76
2022/05/13 00:05:20;;;;;;;8.23;2.17;;;;;;;;;;5094327;28;20024;-78
2022/05/13 00:07:45;;;;;;;7.90;2.45;;;;;;;;;;5059100;28;20104;-76
2022/05/13 00:10:11;;;;;;;6.25;2.50;;;;;;;;;;5058633;28;20034;-78
2022/05/13 00:12:38;;;;;;;8.18;2.75;;;;;;;;;;5093669;28;20458;-76
2022/05/13 00:15:05;;;;;;;5.35;2.22;;;;;;;;;;5092388;28;20028;-78
2022/05/13 00:17:30;;;;;;;5.38;2.10;;;;;;;;;;5074890;28;20028;-76
2022/05/13 00:19:56;;;;;;;3.70;1.90;;;;;;;;;;5075114;28;20036;-77
2022/05/13 00:22:21;;;;;;;6.40;2.10;;;;;;;;;;5058232;28;20077;-76
2022/05/13 00:24:47;;;;;;;6.63;2.13;;;;;;;;;;5092710;28;20034;-77
2022/05/13 00:27:12;;;;;;;7.13;2.45;;;;;;;;;;5058103;28;20517;-77
2022/05/13 00:29:38;;;;;;;5.68;1.90;;;;;;;;;;5058175;28;20123;-75
2022/05/13 00:32:04;;;;;;;6.07;2.65;;;;;;;;;;5092631;28;20024;-77
2022/05/13 00:34:29;;;;;;;7.68;2.53;;;;;;;;;;5092528;28;20457;-78
2022/05/13 00:36:55;;;;;;;4.90;2.35;;;;;;;;;;5074392;28;20050;-76
2022/05/13 00:39:20;;;;;;;7.60;2.30;;;;;;;;;;5092497;28;20053;-76
2022/05/13 00:41:46;;;;;;;6.40;2.28;;;;;;;;;;5074350;28;20027;-77
2022/05/13 00:44:11;;;;;;;8.27;2.60;;;;;;;;;;5092076;28;20032;-77
2022/05/13 00:46:38;;;;;;;6.03;2.33;;;;;;;;;;5074800;28;20115;-77
2022/05/13 00:49:05;;;;;;;5.30;2.08;;;;;;;;;;5074188;28;20035;-77
2022/05/13 00:51:35;;;;;;;7.03;2.60;;;;;;;;;;5074358;28;20064;-78
2022/05/13 00:54:01;;;;;;;5.25;2.35;;;;;;;;;;5091708;28;20035;-77
2022/05/13 00:56:26;;;;;;;9.40;2.25;;;;;;;;;;5092481;28;20379;-78
2022/05/13 00:58:56;;;;;;;6.82;2.50;;;;;;;;;;5093473;28;20027;-77
2022/05/13 01:01:22;;;;;;;6.50;2.40;;;;;;;;;;5074545;28;20503;-77
2022/05/13 01:03:49;;;;;;;4.90;2.13;;;;;;;;;;5073811;28;20028;-78
2022/05/13 01:06:17;;;;;;;7.32;2.75;;;;;;;;;;5073993;28;20122;-78
2022/05/13 01:08:42;;;;;;;7.07;2.00;;;;;;;;;;5057358;28;20032;-77
2022/05/13 01:11:12;;;;;;;8.05;2.60;;;;;;;;;;5058494;28;20538;-77
2022/05/13 01:13:38;;;;;;;6.47;2.25;;;;;;;;;;5073621;28;20158;-77
2022/05/13 01:16:04;;;;;;;5.53;2.28;;;;;;;;;;5057240;28;20059;-76
2022/05/13 01:18:31;;;;;;;8.40;2.72;;;;;;;;;;5074069;28;20032;-77
2022/05/13 01:20:57;;;;;;;7.43;2.33;;;;;;;;;;5073825;28;20097;-77
2022/05/13 01:23:30;;;;;;;5.00;2.08;;;;;;;;;;5092165;28;20067;-76
2022/05/13 01:26:04;;;;;;;7.50;2.60;;;;;;;;;;5057060;28;20138;-77
2022/05/13 01:28:34;;;;;;;6.80;2.45;;;;;;;;;;5074074;28;20118;-77
2022/05/13 01:31:01;;;;;;;6.93;2.78;;;;;;;;;;5057096;28;20028;-77
2022/05/13 01:33:28;;;;;;;12.45;3.20;;;;;;;;;;5091232;28;20032;-77
2022/05/13 01:35:57;;;;;;;4.88;2.10;;;;;;;;;;5092109;28;20540;-77
2022/05/13 01:38:24;;;;;;;5.68;2.20;;;;;;;;;;5073789;28;20110;-78
2022/05/13 01:40:50;;;;;;;4.88;1.95;;;;;;;;;;5073889;28;20537;-77
2022/05/13 01:43:16;;;;;;;5.38;2.88;;;;;;;;;;5091160;28;20032;-78
2022/05/13 01:45:42;;;;;;;7.28;2.20;;;;;;;;;;5091496;28;20436;-77
2022/05/13 01:48:08;;;;;;;11.95;2.47;;;;;;;;;;5091738;28;20035;-77
2022/05/13 01:50:34;;;;;;;4.57;1.92;;;;;;;;;;5073715;28;20457;-77
2022/05/13 01:53:00;;;;;;;4.20;2.10;;;;;;;;;;5073009;28;20090;-77
2022/05/13 01:55:25;;;;;;;6.32;2.10;;;;;;;;;;5091865;28;20028;-77
2022/05/13 01:57:51;;;;;;;5.50;2.30;;;;;;;;;;5073876;28;20024;-77
2022/05/13 02:00:17;;;;;;;5.65;1.98;;;;;;;;;;5091904;28;20032;-78
2022/05/13 02:05:27;;;;;;;4.43;1.95;;;;;;;;;;5073545;28;20467;-78
2022/05/13 02:07:52;;;;;;;6.68;2.00;;;;;;;;;;5091422;28;20065;-76
2022/05/13 02:10:18;;;;;;;6.55;2.97;;;;;;;;;;5091457;28;20103;-77
2022/05/13 02:12:43;;;;;;;6.68;2.88;;;;;;;;;;5091905;28;20032;-75
2022/05/13 02:15:09;;;;;;;6.72;2.28;;;;;;;;;;5056849;28;20039;-76
2022/05/13 02:17:34;;;;;;;3.42;1.73;;;;;;;;;;5091631;28;20024;-76
2022/05/13 02:20:00;;;;;;;6.30;2.15;;;;;;;;;;5073391;28;20507;-78
2022/05/13 02:22:25;;;;;;;8.25;3.72;;;;;;;;;;5077132;28;20032;-76
2022/05/13 02:24:51;;;;;;;8.02;2.30;;;;;;;;;;5094867;28;20047;-80
2022/05/13 02:27:16;;;;;;;4.40;2.03;;;;;;;;;;5060574;28;20093;-78
2022/05/13 02:29:41;;;;;;;8.50;2.00;;;;;;;;;;5095285;28;20387;-76
2022/05/13 02:32:07;;;;;;;6.18;1.90;;;;;;;;;;5060471;28;20500;-78
2022/05/13 02:34:36;;;;;;;8.07;2.20;;;;;;;;;;5095285;28;20054;-77
2022/05/13 02:37:02;;;;;;;6.18;1.95;;;;;;;;;;5076718;28;20028;-77
2022/05/13 02:39:27;;;;;;;3.95;1.80;;;;;;;;;;5076745;28;20073;-77
2022/05/13 02:41:53;;;;;;;6.40;2.13;;;;;;;;;;5094602;28;20626;-78
2022/05/13 02:44:18;;;;;;;8.15;2.38;;;;;;;;;;5059375;28;20384;-77
2022/05/13 02:46:47;;;;;;;;;;;;;;;;;;5044413;28;20032;-76
2022/05/13 02:49:13;;;;;;;7.20;2.50;;;;;;;;;;5076559;28;19907;-78
2022/05/13 02:51:39;;;;;;;5.47;1.73;;;;;;;;;;5059889;28;20475;-76
2022/05/13 02:54:05;;;;;;;5.47;2.00;;;;;;;;;;5075944;28;20149;-77
2022/05/13 02:56:31;;;;;;;6.70;2.03;;;;;;;;;;5094573;28;20111;-78
2022/05/13 02:58:56;;;;;;;4.47;1.45;;;;;;;;;;5095755;28;20479;-77
2022/05/13 03:01:22;;;;;;;5.18;2.00;;;;;;;;;;5094901;28;20031;-77
2022/05/13 03:03:48;;;;;;;9.82;2.72;;;;;;;;;;5094106;28;20479;-75
2022/05/13 03:06:14;;;;;;;10.93;2.10;;;;;;;;;;5075845;28;20028;-76
2022/05/13 03:08:39;;;;;;;3.63;1.63;;;;;;;;;;5075813;28;20476;-76
2022/05/13 03:11:05;;;;;;;4.15;1.98;;;;;;;;;;5094098;28;20117;-76
2022/05/13 03:13:31;;;;;;;7.13;1.85;;;;;;;;;;5075309;28;20243;-77
2022/05/13 03:16:23;;;;;;;7.32;2.20;;;;;;;;;;5059254;28;20463;-77
2022/05/13 03:18:50;;;;;;;7.53;2.78;;;;;;;;;;5074879;28;20043;-76
2022/05/13 03:21:15;;;;;;;5.88;2.05;;;;;;;;;;5075549;28;20081;-77
2022/05/13 03:23:43;;;;;;;5.30;2.47;;;;;;;;;;5058720;28;20047;-75
2022/05/13 03:26:10;;;;;;;4.38;2.45;;;;;;;;;;5075306;28;20265;-76
2022/05/13 03:28:36;;;;;;;5.35;2.63;;;;;;;;;;5093957;28;20524;-77
2022/05/13 03:31:01;;;;;;;11.52;4.20;;;;;;;;;;5059169;28;20127;-78
2022/05/13 03:33:27;;;;;;;4.03;2.35;;;;;;;;;;5093269;28;20467;-77
2022/05/13 03:35:52;;;;;;;7.72;3.13;;;;;;;;;;5075193;28;20058;-76
2022/05/13 03:38:18;;;;;;;5.90;2.70;;;;;;;;;;5093525;28;20028;-78
2022/05/13 03:40:46;;;;;;;8.43;3.72;;;;;;;;;;5042270;28;20032;-75
2022/05/13 03:43:11;;;;;;;12.18;2.90;;;;;;;;;;5075034;28;20028;-78
2022/05/13 03:45:37;;;;;;;7.15;2.67;;;;;;;;;;5058774;28;20039;-77
2022/05/13 03:48:03;;;;;;;6.60;2.88;;;;;;;;;;5058680;28;20078;-76
2022/05/13 03:50:28;;;;;;;10.13;2.80;;;;;;;;;;5074970;28;20024;-77
2022/05/13 03:52:54;;;;;;;6.35;2.25;;;;;;;;;;5093040;28;20506;-77
2022/05/13 03:55:19;;;;;;;7.28;3.08;;;;;;;;;;5075018;28;20478;-78
2022/05/13 03:57:45;;;;;;;12.63;3.92;;;;;;;;;;5075278;28;20059;-78
2022/05/13 04:00:11;;;;;;;7.10;3.35;;;;;;;;;;5093297;28;20035;-77
2022/05/13 04:02:37;;;;;;;6.88;3.10;;;;;;;;;;5058226;28;20024;-77
2022/05/13 04:10:31;;;;;;;7.18;3.45;;;;;;;;;;5092851;28;20025;-78
2022/05/13 04:18:25;;;;;;;5.60;3.20;;;;;;;;;;5092666;28;20032;-77
2022/05/13 04:20:51;;;;;;;7.65;3.75;;;;;;;;;;5074426;28;20081;-77
2022/05/13 04:23:18;;;;;;;8.23;3.40;;;;;;;;;;5057584;28;20039;-78
2022/05/13 04:25:44;;;;;;;9.70;3.78;;;;;;;;;;5057726;28;20032;-76
2022/05/13 04:28:09;;;;;;;6.50;3.95;;;;;;;;;;5074634;28;20034;-77
2022/05/13 04:30:35;;;;;;;10.95;4.10;;;;;;;;;;5074444;28;20046;-77
2022/05/13 04:33:00;;;;;;;6.68;3.30;;;;;;;;;;5074039;28;20036;-78
2022/05/13 04:35:26;;;;;;;7.70;3.75;;;;;;;;;;5074076;28;20475;-77
2022/05/13 04:37:51;;;;;;;11.23;3.97;;;;;;;;;;5092304;28;20020;-76
2022/05/13 04:40:17;;;;;;;8.88;4.40;;;;;;;;;;5092219;28;20024;-77
2022/05/13 04:42:51;;;;;;;9.75;4.25;;;;;;;;;;5057155;28;20024;-77
2022/05/13 04:45:23;;;;;;;10.45;4.07;;;;;;;;;;5091652;28;20059;-77
2022/05/13 04:50:34;;;;;;;14.57;4.30;;;;;;;;;;5058277;28;20028;-77
2022/05/13 04:53:01;;;;;;;11.27;3.35;;;;;;;;;;5092821;28;20031;-77
2022/05/13 04:55:26;;;;;;;12.35;3.95;;;;;;;;;;5073937;28;20058;-77
2022/05/13 04:57:52;;;;;;;7.90;3.65;;;;;;;;;;5073692;28;20028;-77
2022/05/13 05:00:18;;;;;;;7.63;3.28;;;;;;;;;;5073915;28;20027;-77
2022/05/13 05:02:43;;;;;;;10.43;3.60;;;;;;;;;;5040204;28;20119;-77
2022/05/13 05:05:09;;;;;;;6.57;3.45;;;;;;;;;;5073700;28;20127;-77
2022/05/13 05:07:34;;;;;;;10.20;3.45;;;;;;;;;;5073685;28;20933;-77
2022/05/13 05:10:00;;;;;;;5.95;3.10;;;;;;;;;;5073404;28;20028;-78
2022/05/13 05:12:25;;;;;;;8.07;3.75;;;;;;;;;;5091820;28;20024;-77
2022/05/13 05:14:51;;;;;;;10.57;3.60;;;;;;;;;;5056551;28;20106;-77
2022/05/13 05:17:16;;;;;;;7.03;3.60;;;;;;;;;;5073613;28;20028;-77
2022/05/13 05:19:42;;;;;;;8.85;3.30;;;;;;;;;;5091380;28;20024;-77
2022/05/13 05:22:07;;;;;;;8.80;3.53;;;;;;;;;;5073560;28;20480;-77
2022/05/13 05:24:33;;;;;;;8.88;3.22;;;;;;;;;;5056284;28;20028;-77
2022/05/13 05:26:58;;;;;;;7.68;3.38;;;;;;;;;;5073619;28;20407;-77
2022/05/13 05:29:24;;;;;;;6.18;3.25;;;;;;;;;;5056371;28;20509;-77
2022/05/13 05:31:49;;;;;;;10.05;3.58;;;;;;;;;;5091497;28;20032;-77
2022/05/13 05:34:16;;;;;;;6.45;3.17;;;;;;;;;;5072854;28;20467;-77
2022/05/13 05:36:42;;;;;;;6.65;3.00;;;;;;;;;;5056597;28;20479;-77
2022/05/13 05:39:08;;;;;;;5.78;3.33;;;;;;;;;;5073693;28;20039;-77
2022/05/13 05:41:33;;;;;;;11.55;3.45;;;;;;;;;;5073396;28;20024;-76
2022/05/13 05:44:02;;;;;;;9.18;3.40;;;;;;;;;;5073269;28;20463;-77
2022/05/13 05:46:28;;;;;;;9.80;2.80;;;;;;;;;;5056777;28;20039;-77
2022/05/13 05:48:54;;;;;;;5.53;2.75;;;;;;;;;;5073176;28;20402;-76
2022/05/13 05:51:20;;;;;;;7.28;2.95;;;;;;;;;;5056896;28;20459;-77
2022/05/13 05:59:14;;;;;;;7.95;2.60;;;;;;;;;;5077401;28;20122;-77
2022/05/13 06:01:39;;;;;;;7.68;3.13;;;;;;;;;;5076867;28;20503;-77
2022/05/13 06:04:06;;;;;;;8.07;2.70;;;;;;;;;;5043764;28;20486;-77
2022/05/13 06:06:31;;;;;;;15.05;3.13;;;;;;;;;;5095459;28;20127;-77
2022/05/13 06:08:58;;;;;;;8.68;2.70;;;;;;;;;;5060606;28;20032;-77
2022/05/13 06:11:26;;;;;;;10.18;2.70;;;;;;;;;;5094990;28;20039;-77
2022/05/13 06:13:53;;;;;;;6.72;3.20;;;;;;;;;;5076597;28;20088;-77
2022/05/13 06:16:19;;;;;;;7.32;2.45;;;;;;;;;;5094675;28;20027;-77
2022/05/13 06:18:45;;;;;;;9.73;2.70;;;;;;;;;;5095197;28;20100;-77
2022/05/13 06:21:11;;;;;;;5.38;2.30;;;;;;;;;;5094616;28;20114;-77
2022/05/13 06:23:36;;;;;;;8.52;2.40;;;;;;;;;;5094520;28;20399;-77
2022/05/13 06:26:02;;;;;;;5.30;2.45;;;;;;;;;;5095038;28;20055;-77
2022/05/13 06:28:28;;;;;;;6.95;2.53;;;;;;;;;;5076933;28;20040;-77
2022/05/13 06:30:54;;;;;;;6.35;2.30;;;;;;;;;;5094493;28;20023;-77
2022/05/13 06:33:22;;;;;;;11.10;2.78;;;;;;;;;;5059369;28;20036;-78
2022/05/13 06:35:48;;;;;;;12.40;3.10;;;;;;;;;;5043341;28;20032;-77
2022/05/13 06:38:21;;;;;;;12.13;2.90;;;;;;;;;;5076817;28;20437;-77
2022/05/13 06:40:47;;;;;;;11.75;2.63;;;;;;;;;;5076963;28;20028;-77
2022/05/13 06:43:13;;;;;;;7.95;2.78;;;;;;;;;;5059267;28;20447;-77
2022/05/13 06:45:39;;;;;;;8.57;2.97;;;;;;;;;;5094291;28;20020;-77
2022/05/13 06:48:05;;;;;;;7.00;3.00;;;;;;;;;;5059654;28;20076;-78
2022/05/13 06:50:32;;;;;;;10.00;3.28;;;;;;;;;;5094063;28;20028;-77
2022/05/13 06:52:57;;;;;;;6.97;3.20;;;;;;;;;;5093578;28;20043;-77
2022/05/13 06:55:23;;;;;;;8.40;3.40;;;;;;;;;;5059196;28;20471;-77
2022/05/13 06:57:49;;;;;;;10.70;3.42;;;;;;;;;;5094087;28;20068;-77
2022/05/13 07:00:15;;;;;;;14.18;3.15;;;;;;;;;;5075894;28;20103;-77
2022/05/13 07:02:41;;;;;;;6.75;2.95;;;;;;;;;;5058967;28;20032;-77
2022/05/13 07:05:08;;;;;;;11.63;3.22;;;;;;;;;;5075658;28;20379;-77
2022/05/13 07:07:34;;;;;;;5.72;3.28;;;;;;;;;;5075642;28;20057;-78
2022/05/13 07:10:00;;;;;;;6.13;3.28;;;;;;;;;;5075907;28;20032;-77
2022/05/13 07:12:25;;;;;;;9.98;3.60;;;;;;;;;;5075515;28;20028;-77
2022/05/13 07:14:53;;;;;;;10.07;3.75;;;;;;;;;;5093037;28;20032;-77
2022/05/13 07:17:19;;;;;;;9.32;2.88;;;;;;;;;;5075586;28;20127;-76
2022/05/13 07:19:44;;;;;;;9.90;2.65;;;;;;;;;;5093544;28;20055;-77
2022/05/13 07:22:10;;;;;;;4.45;2.35;;;;;;;;;;5075432;28;20032;-77
2022/05/13 07:24:35;;;;;;;8.93;2.63;;;;;;;;;;5058777;28;20475;-77
2022/05/13 07:27:00;;;;;;;6.38;2.40;;;;;;;;;;5093673;28;20108;-77
2022/05/13 07:29:26;;;;;;;8.73;2.72;;;;;;;;;;5075493;28;20523;-77
2022/05/13 07:31:51;;;;;;;6.90;2.65;;;;;;;;;;5080845;28;20058;-78
2022/05/13 07:34:17;;;;;;;12.10;3.13;;;;;;;;;;5078786;28;20085;-77
2022/05/13 07:36:43;;;;;;;7.22;3.03;;;;;;;;;;5076161;28;20407;-77
2022/05/13 07:41:53;;;;;;;9.32;3.15;;;;;;;;;;5075413;28;20031;-78
2022/05/13 07:44:19;;;;;;;12.13;3.10;;;;;;;;;;5041539;28;20238;-78
2022/05/13 07:46:45;;;;;;;9.05;2.63;;;;;;;;;;5093549;28;20032;-79
2022/05/13 07:49:10;;;;;;;11.35;2.95;;;;;;;;;;5093343;28;20027;-79
2022/05/13 07:51:36;;;;;;;7.32;2.65;;;;;;;;;;5093034;28;20110;-78
2022/05/13 07:54:01;;;;;;;8.20;2.65;;;;;;;;;;5074829;28;20548;-78
2022/05/13 07:56:27;;;;;;;10.63;2.70;;;;;;;;;;5074969;28;20028;-78
2022/05/13 07:58:53;;;;;;;14.07;3.08;;;;;;;;;;5075416;28;20028;-77
2022/05/13 08:01:18;;;;;;;8.30;1.95;;;;;;;;;;5093053;28;20100;-78
2022/05/13 08:03:44;;;;;;;7.85;2.50;;;;;;;;;;5058073;28;20335;-78
2022/05/13 08:06:13;;;;;;;10.45;2.28;;;;;;;;;;5058180;28;20507;-79
2022/05/13 08:08:40;;;;;;;8.68;2.50;;;;;;;;;;5075134;28;20228;-78
2022/05/13 08:11:07;;;;;;;9.07;2.53;;;;;;;;;;5074951;28;20074;-78
2022/05/13 08:13:34;;;;;;;11.88;2.60;;;;;;;;;;5092295;28;20063;-77
2022/05/13 08:16:07;;;;;;;7.10;2.67;;;;;;;;;;5092730;28;20032;-76
2022/05/13 08:18:33;;;;;;;7.68;2.22;;;;;;;;;;5073989;28;20024;-77
2022/05/13 08:20:59;;;;;;;11.27;2.58;;;;;;;;;;5092787;28;20062;-77
2022/05/13 08:23:24;;;;;;;8.48;2.33;;;;;;;;;;5074407;28;20027;-77
2022/05/13 08:25:50;;;;;;;7.25;2.30;;;;;;;;;;5095194;28;20399;-78
2022/05/13 08:28:16;;;;;;;5.72;2.20;;;;;;;;;;5098329;28;20476;-75
2022/05/13 08:30:44;;;;;;;13.00;2.58;;;;;;;;;;5093203;28;20110;-78
2022/05/13 08:33:10;;;;;;;10.98;2.40;;;;;;;;;;5074000;28;20124;-75
2022/05/13 08:35:36;;;;;;;16.13;3.50;;;;;;;;;;5092376;28;20023;-78
2022/05/13 08:38:02;;;;;;;9.98;2.72;;;;;;;;;;5092525;28;20028;-78
2022/05/13 08:40:37;;;;;;;9.23;2.20;;;;;;;;;;5074246;28;20043;-78
2022/05/13 08:43:09;;;;;;;11.82;2.60;;;;;;;;;;5091898;28;20028;-77
2022/05/13 08:45:35;;;;;;;9.88;2.78;;;;;;;;;;5092311;28;20050;-77
2022/05/13 08:48:01;;;;;;;8.75;2.47;;;;;;;;;;5057489;28;20024;-77
2022/05/13 08:50:37;;;;;;;8.13;2.88;;;;;;;;;;5057137;28;20031;-78
2022/05/13 08:53:12;;;;;;;13.25;2.58;;;;;;;;;;5091786;28;20020;-77
2022/05/13 08:55:42;;;;;;;9.30;2.50;;;;;;;;;;5074044;28;20047;-79
2022/05/13 08:58:11;;;;;;;9.20;2.22;;;;;;;;;;5074288;28;20119;-78
2022/05/13 09:00:47;;;;;;;13.55;2.40;;;;;;;;;;5092270;28;20029;-78
2022/05/13 09:03:18;;;;;;;13.38;3.40;;;;;;;;;;5095297;28;20031;-79
2022/05/13 09:06:03;;;;;;;8.63;2.10;;;;;;;;;;5060046;28;20020;-77
2022/05/13 09:08:29;;;;;;;6.10;1.88;;;;;;;;;;5053330;28;20056;-78
2022/05/13 09:11:14;;;;;;;7.53;1.80;;;;;;;;;;5057218;28;20510;-78
2022/05/13 09:14:03;;;;;;;11.45;2.20;;;;;;;;;;5072964;28;20047;-78
2022/05/13 09:16:34;;;;;;;13.35;2.60;;;;;;;;;;5074236;28;20039;-77
2022/05/13 09:19:03;;;;;;;4.72;1.40;;;;;;;;;;5074107;28;20475;-77
2022/05/13 09:21:29;;;;;;;7.65;1.92;;;;;;;;;;5073800;28;20489;-78
2022/05/13 09:23:54;;;;;;;13.85;2.50;;;;;;;;;;5091600;28;20032;-77
2022/05/13 09:26:22;;;;;;;6.88;1.75;;;;;;;;;;5091941;28;20032;-76
2022/05/13 09:29:07;;;;;;;14.52;3.15;;;;;;;;;;5056984;28;20061;-77
2022/05/13 09:31:34;;;;;;;7.75;1.75;;;;;;;;;;5077483;28;20040;-77
2022/05/13 09:34:00;;;;;;;6.15;1.80;;;;;;;;;;5095551;28;20028;-77
2022/05/13 09:36:26;;;;;;;5.45;2.03;;;;;;;;;;5060898;28;20078;-77
2022/05/13 09:38:53;;;;;;;9.32;1.95;;;;;;;;;;5095814;28;20024;-77
2022/05/13 09:41:35;;;;;;;15.75;2.00;;;;;;;;;;5077824;28;20171;-78
2022/05/13 09:44:30;;;;;;;8.63;2.05;;;;;;;;;;5096202;28;20038;-77
2022/05/13 09:47:10;;;;;;;8.93;2.40;;;;;;;;;;5068987;28;20047;-78
2022/05/13 09:49:38;;;;;;;10.05;2.40;;;;;;;;;;5077546;28;20221;-77
2022/05/13 09:52:11;;;;;;;9.53;2.20;;;;;;;;;;5077439;28;20532;-77
2022/05/13 09:54:44;;;;;;;7.45;2.38;;;;;;;;;;5095150;28;20759;-76
2022/05/13 09:57:14;;;;;;;9.63;1.95;;;;;;;;;;5060689;28;20051;-77
2022/05/13 09:59:44;;;;;;;8.80;1.80;;;;;;;;;;5077245;28;20032;-77
2022/05/13 10:02:32;;;;;;;7.82;1.65;;;;;;;;;;5095377;28;20024;-77
2022/05/13 10:05:12;;;;;;;6.82;2.15;;;;;;;;;;5060175;28;20032;-76
2022/05/13 10:07:41;;;;;;;6.70;1.80;;;;;;;;;;5060844;28;20103;-77
2022/05/13 10:15:48;;;;;;;10.30;1.80;;;;;;;;;;5078700;28;20057;-77
2022/05/13 10:18:22;;;;;;;11.52;1.60;;;;;;;;;;5077248;28;20035;-77
2022/05/13 10:20:50;;;;;;;7.22;1.73;;;;;;;;;;5043767;28;20067;-78
2022/05/13 10:23:15;;;;;;;6.87;1.50;;;;;;;;;;5094507;28;20032;-77
2022/05/13 10:26:07;;;;;;;8.00;1.40;;;;;;;;;;5076611;28;20020;-77
2022/05/13 10:28:37;;;;;;;6.25;1.67;;;;;;;;;;5058861;28;20036;-77
2022/05/13 10:31:22;;;;;;;7.90;1.35;;;;;;;;;;5076883;28;20089;-77
2022/05/13 10:34:07;;;;;;;5.03;1.50;;;;;;;;;;5059219;28;20074;-77
2022/05/13 10:37:11;;;;;;;5.40;1.70;;;;;;;;;;5076300;28;20387;-77
2022/05/13 10:39:43;;;;;;;8.15;2.28;;;;;;;;;;5051610;28;20145;-77
2022/05/13 10:42:18;;;;;;;9.57;2.28;;;;;;;;;;5051131;28;20102;-77
2022/05/13 10:44:46;;;;;;;10.63;1.88;;;;;;;;;;5035431;28;20048;-77
2022/05/13 10:47:12;;;;;;;;;;;;;;;;;;5052069;28;20056;-78
2022/05/13 10:49:39;;;;;;;8.43;1.80;;;;;;;;;;5035197;28;20054;-76
2022/05/13 10:52:23;;;;;;;9.65;1.42;;;;;;;;;;5018684;28;20578;-77
2022/05/13 10:54:51;;;;;;;7.63;1.80;;;;;;;;;;5034556;28;20040;-74
2022/05/13 10:57:35;;;;;;;6.38;1.92;;;;;;;;;;5051490;28;20059;-78
2022/05/13 11:00:13;;;;;;;6.85;1.48;;;;;;;;;;5051576;28;20032;-77
2022/05/13 11:02:42;;;;;;;5.18;1.75;;;;;;;;;;5051808;28;20040;-77
2022/05/13 11:05:07;;;;;;;12.13;1.90;;;;;;;;;;5035261;28;20181;-76
2022/05/13 11:07:39;;;;;;;4.43;1.63;;;;;;;;;;5035086;28;20118;-76
2022/05/13 11:10:27;;;;;;;10.38;1.80;;;;;;;;;;5069903;28;20044;-77
2022/05/13 11:13:02;;;;;;;9.63;1.60;;;;;;;;;;5077126;28;20085;-77
2022/05/13 11:15:51;;;;;;;6.32;1.48;;;;;;;;;;5075944;28;20028;-77
2022/05/13 11:18:23;;;;;;;6.70;1.42;;;;;;;;;;5059169;28;20111;-77
2022/05/13 11:20:51;;;;;;;7.50;1.48;;;;;;;;;;5075760;28;20031;-77
2022/05/13 11:23:23;;;;;;;5.38;1.58;;;;;;;;;;5075482;28;20122;-77
2022/05/13 11:26:06;;;;;;;9.57;1.88;;;;;;;;;;5093949;28;20028;-78
2022/05/13 11:28:32;;;;;;;8.45;1.50;;;;;;;;;;5075914;28;20028;-78
2022/05/13 11:31:05;;;;;;;8.20;1.33;;;;;;;;;;5058660;28;20051;-77
2022/05/13 11:33:49;;;;;;;9.07;1.52;;;;;;;;;;5093043;28;20126;-76
2022/05/13 11:36:30;;;;;;;9.05;1.50;;;;;;;;;;5093281;28;20032;-77
2022/05/13 11:39:14;;;;;;;7.13;1.45;;;;;;;;;;5074950;28;20475;-77
2022/05/13 11:41:47;;;;;;;6.50;1.42;;;;;;;;;;5093136;28;20063;-77
2022/05/13 11:44:15;;;;;;;10.07;1.85;;;;;;;;;;5075285;28;20606;-78
2022/05/13 11:46:40;;;;;;;11.00;2.00;;;;;;;;;;5074992;28;20101;-76
2022/05/13 11:49:24;;;;;;;14.90;2.67;;;;;;;;;;5075446;28;20032;-77
2022/05/13 11:51:50;;;;;;;18.75;2.20;;;;;;;;;;5058545;28;20135;-78
2022/05/13 11:54:28;;;;;;;9.07;2.17;;;;;;;;;;5057087;28;20115;-78
2022/05/13 11:56:53;;;;;;;;;;;;;;;;;;5059151;28;20060;-78
2022/05/13 11:59:37;;;;;;;8.23;2.13;;;;;;;;;;5075394;28;19959;-77
2022/05/13 12:02:14;;;;;;;5.18;1.48;;;;;;;;;;5075973;28;20051;-77
2022/05/13 12:05:01;;;;;;;7.63;1.90;;;;;;;;;;5080263;28;20075;-76
2022/05/13 12:07:31;;;;;;;9.82;1.75;;;;;;;;;;5078031;28;20525;-77
2022/05/13 12:09:58;;;;;;;6.18;1.40;;;;;;;;;;5075219;28;20102;-78
2022/05/13 12:12:27;;;;;;;8.13;1.50;;;;;;;;;;5058574;28;20169;-78
2022/05/13 12:15:03;;;;;;;8.98;1.67;;;;;;;;;;5074920;28;20039;-78
2022/05/13 12:17:37;;;;;;;7.22;1.65;;;;;;;;;;5060253;28;20220;-78
2022/05/13 12:20:32;;;;;;;10.05;2.22;;;;;;;;;;5097320;28;20024;-79
2022/05/13 12:23:33;;;;;;;11.50;1.98;;;;;;;;;;5085227;28;20028;-77
2022/05/13 12:26:10;;;;;;;4.93;1.65;;;;;;;;;;5050325;28;20033;-77
2022/05/13 12:28:40;;;;;;;9.88;1.52;;;;;;;;;;5087284;28;20044;-78
2022/05/13 12:31:19;;;;;;;7.72;1.85;;;;;;;;;;5092769;28;20066;-78
2022/05/13 12:37:33;;;;;;;6.45;1.88;;;;;;;;;;5074486;28;20054;-77
2022/05/13 12:39:42;;;;;;;8.45;2.65;;;;;;;;;;5073832;28;20134;-77
2022/05/13 12:42:12;;;;;;;9.07;1.75;;;;;;;;;;5074777;28;20030;-78
2022/05/13 12:44:58;;;;;;;6.50;1.30;;;;;;;;;;5091925;28;20119;-75
2022/05/13 12:47:28;;;;;;;4.97;1.77;;;;;;;;;;5075474;28;20028;-77
2022/05/13 12:49:58;;;;;;;12.82;1.77;;;;;;;;;;5074196;28;20028;-78
2022/05/13 12:52:26;;;;;;;6.63;1.50;;;;;;;;;;5091877;28;20082;-77
2022/05/13 12:55:12;;;;;;;8.38;1.83;;;;;;;;;;5073496;28;20059;-77
2022/05/13 12:57:43;;;;;;;5.75;1.92;;;;;;;;;;5057514;28;20024;-77
2022/05/13 13:00:11;;;;;;;9.63;1.95;;;;;;;;;;5093211;28;20024;-77
2022/05/13 13:02:38;;;;;;;6.40;1.33;;;;;;;;;;5057061;28;20075;-76
2022/05/13 13:05:06;;;;;;;5.82;1.58;;;;;;;;;;5091501;28;20093;-77
2022/05/13 13:07:33;;;;;;;5.53;1.58;;;;;;;;;;5057540;28;20039;-77
2022/05/13 13:09:59;;;;;;;13.65;1.60;;;;;;;;;;5073945;28;20039;-77
2022/05/13 13:12:30;;;;;;;9.00;1.70;;;;;;;;;;5073730;28;20475;-78
2022/05/13 13:15:22;;;;;;;10.07;1.90;;;;;;;;;;5058108;28;20100;-76
2022/05/13 13:17:54;;;;;;;9.93;1.77;;;;;;;;;;5058491;28;20052;-77
2022/05/13 13:20:21;;;;;;;10.95;2.00;;;;;;;;;;5092192;28;20032;-78
2022/05/13 13:22:48;;;;;;;5.75;1.83;;;;;;;;;;5057015;28;20526;-78
2022/05/13 13:25:32;;;;;;;10.13;1.55;;;;;;;;;;5091792;28;20039;-77
2022/05/13 13:28:02;;;;;;;13.60;2.92;;;;;;;;;;5073910;28;20032;-78
2022/05/13 13:30:28;;;;;;;15.82;2.45;;;;;;;;;;5091552;28;20035;-77
2022/05/13 13:32:54;;;;;;;12.60;1.70;;;;;;;;;;5056765;28;20157;-78
2022/05/13 13:35:46;;;;;;;9.57;1.60;;;;;;;;;;5091492;28;20133;-78
2022/05/13 13:38:14;;;;;;;12.40;1.52;;;;;;;;;;5056202;28;20043;-78
2022/05/13 13:40:43;;;;;;;13.98;1.58;;;;;;;;;;5091660;28;20081;-77
2022/05/13 13:43:25;;;;;;;11.07;1.85;;;;;;;;;;5091502;28;20029;-77
2022/05/13 13:45:53;;;;;;;11.82;1.60;;;;;;;;;;5091805;28;20028;-78
2022/05/13 13:48:22;;;;;;;7.10;1.50;;;;;;;;;;5074208;28;20020;-78
2022/05/13 13:50:50;;;;;;;10.05;1.75;;;;;;;;;;5075908;28;20051;-77
2022/05/13 13:53:41;;;;;;;7.43;1.42;;;;;;;;;;5059976;28;20028;-77
2022/05/13 13:56:08;;;;;;;8.57;1.33;;;;;;;;;;5073764;28;20570;-77
2022/05/13 13:58:39;;;;;;;14.32;2.35;;;;;;;;;;5073683;28;20039;-78
2022/05/13 14:01:10;;;;;;;8.45;1.83;;;;;;;;;;5091566;28;20032;-77
2022/05/13 14:03:35;;;;;;;10.77;1.40;;;;;;;;;;5057478;28;20032;-77
2022/05/13 14:06:05;;;;;;;6.70;1.40;;;;;;;;;;5073101;28;20038;-77
2022/05/13 14:08:36;;;;;;;6.25;1.73;;;;;;;;;;5091360;28;20103;-77
2022/05/13 14:11:04;;;;;;;3.38;1.15;;;;;;;;;;5073237;28;20028;-77
2022/05/13 14:13:37;;;;;;;9.98;3.03;;;;;;;;;;5073087;28;20104;-77
2022/05/13 14:16:04;;;;;;;11.25;1.40;;;;;;;;;;5073536;28;20031;-77
2022/05/13 14:18:30;;;;;;;8.30;1.50;;;;;;;;;;5076952;28;20024;-78
2022/05/13 14:21:06;;;;;;;7.47;1.45;;;;;;;;;;5077016;28;20402;-77
2022/05/13 14:23:33;;;;;;;10.05;1.40;;;;;;;;;;5060676;28;20028;-78
2022/05/13 14:26:01;;;;;;;7.68;2.00;;;;;;;;;;5096057;28;20111;-77
2022/05/13 14:28:30;;;;;;;6.70;1.60;;;;;;;;;;5043809;28;20050;-78
2022/05/13 14:31:03;;;;;;;7.13;2.10;;;;;;;;;;5076887;28;20028;-77
2022/05/13 14:33:29;;;;;;;6.93;1.50;;;;;;;;;;5076525;28;20107;-78
2022/05/13 14:36:04;;;;;;;4.63;1.38;;;;;;;;;;5044057;28;20028;-75
2022/05/13 14:41:49;;;;;;;3.50;1.17;;;;;;;;;;5076545;28;20422;-77
2022/05/13 14:44:34;;;;;;;5.63;1.35;;;;;;;;;;5094578;28;20112;-75
2022/05/13 14:47:01;;;;;;;4.13;1.10;;;;;;;;;;5098361;28;20044;-77
2022/05/13 14:49:37;;;;;;;8.63;1.80;;;;;;;;;;5061155;28;20479;-77
2022/05/13 14:52:34;;;;;;;8.25;1.55;;;;;;;;;;5077759;28;20161;-77
2022/05/13 14:55:00;;;;;;;10.60;1.73;;;;;;;;;;5094109;28;20040;-78
2022/05/13 14:57:26;;;;;;;13.15;1.70;;;;;;;;;;5094658;28;20497;-77
2022/05/13 14:59:52;;;;;;;5.68;1.23;;;;;;;;;;5094266;28;20099;-78
2022/05/13 15:02:28;;;;;;;7.22;1.20;;;;;;;;;;5095764;28;20030;-78
2022/05/13 15:04:56;;;;;;;7.75;1.20;;;;;;;;;;5093872;28;20024;-77
2022/05/13 15:07:37;;;;;;;9.98;1.50;;;;;;;;;;5094588;28;20036;-77
2022/05/13 15:10:03;;;;;;;5.72;1.23;;;;;;;;;;5076457;28;20069;-77
2022/05/13 15:12:29;;;;;;;4.40;1.13;;;;;;;;;;5059936;28;20089;-77
2022/05/13 15:14:55;;;;;;;7.50;1.95;;;;;;;;;;5058915;28;20542;-78
2022/05/13 15:17:20;;;;;;;13.35;1.48;;;;;;;;;;5059419;28;20032;-77
2022/05/13 15:19:46;;;;;;;7.45;1.23;;;;;;;;;;5075988;28;20497;-76
2022/05/13 15:22:15;;;;;;;9.40;1.60;;;;;;;;;;5093715;28;20028;-77
2022/05/13 15:24:43;;;;;;;8.07;1.65;;;;;;;;;;5093596;28;20027;-78
2022/05/13 15:27:13;;;;;;;4.07;1.48;;;;;;;;;;5094366;28;20028;-78
2022/05/13 15:29:40;;;;;;;6.45;1.70;;;;;;;;;;5094004;28;20150;-77